Time;durP1;ratioP1;P1;durP2;ratioP2;P2;SDS_P1;SDS_P2;PMS_P1;PMS_P2;Temp;Humidity;BMP_temperature;BMP_pressure;BME280_temperature;BME280_humidity;BME280_pressure;Samples;Min_cycle;Max_cycle;Signal;HPM_P1;HPM_P2
2024/04/06 00:00:17;;;;;;;3.08;1.73;;;14.70;99.90;;;-141.84;62.42;19500.88;5089758;28;20584;-67
2024/04/06 00:02:45;;;;;;;2.10;1.92;;;14.70;99.90;;;-141.84;62.47;19476.47;5089316;28;20587;-68
2024/04/06 00:05:12;;;;;;;2.38;1.92;;;14.70;99.90;;;-141.84;62.55;19431.78;5089599;28;20224;-68
2024/04/06 00:07:39;;;;;;;3.20;2.00;;;14.70;99.90;;;-141.84;62.80;19500.88;5089914;28;20212;-67
2024/04/06 00:10:07;;;;;;;2.05;1.95;;;14.60;99.90;;;-141.84;63.10;19490.72;5089571;28;20231;-68
2024/04/06 00:12:33;;;;;;;3.10;2.10;;;14.60;99.90;;;-141.84;63.10;19490.72;5090208;28;20200;-67
2024/04/06 00:15:02;;;;;;;2.83;1.88;;;14.60;99.90;;;-141.84;63.59;19500.88;5092945;28;20572;-68
2024/04/06 00:17:28;;;;;;;6.03;2.40;;;14.50;99.90;;;-141.84;64.22;19468.34;5092690;28;20219;-69
2024/04/06 00:19:56;;;;;;;2.78;2.20;;;14.50;99.90;;;-141.84;64.74;19504.94;5092513;28;20215;-70
2024/04/06 00:22:22;;;;;;;2.22;2.03;;;14.40;99.90;;;-141.84;65.26;19496.81;5097866;28;20215;-70
2024/04/06 00:24:49;;;;;;;2.60;2.40;;;14.40;99.90;;;-141.84;65.18;19460.22;5092598;28;20225;-68
2024/04/06 00:27:16;;;;;;;2.00;1.80;;;14.30;99.90;;;-141.84;65.32;19504.94;5090458;28;20208;-68
2024/04/06 00:29:43;;;;;;;2.10;1.90;;;14.30;99.90;;;-141.84;65.67;19492.75;5092816;28;20215;-68
2024/04/06 00:32:10;;;;;;;1.80;1.70;;;14.30;99.90;;;-141.84;65.42;19506.97;5092312;28;20216;-70
2024/04/06 00:34:38;;;;;;;2.65;1.75;;;14.30;99.90;;;-141.84;65.53;19521.19;5092045;28;20222;-67
2024/04/06 00:37:08;;;;;;;2.00;1.90;;;14.30;99.90;;;-141.84;65.72;19521.19;5089070;28;20265;-68
2024/04/06 00:39:35;;;;;;;1.92;1.75;;;14.30;99.90;;;-141.84;65.98;19506.97;5089310;28;20721;-68
2024/04/06 00:42:01;;;;;;;3.35;1.85;;;14.30;99.90;;;-141.84;65.89;19482.56;5090506;28;20196;-68
2024/04/06 00:44:28;;;;;;;2.25;1.60;;;14.30;99.90;;;-141.84;66.12;19504.94;5092174;28;20207;-69
2024/04/06 00:46:55;;;;;;;1.98;1.67;;;14.40;99.90;;;-141.84;66.10;19517.13;5092309;28;20238;-68
2024/04/06 00:49:23;;;;;;;2.10;1.70;;;14.30;99.90;;;-141.84;66.11;19561.84;5091870;28;20223;-68
2024/04/06 00:51:50;;;;;;;2.10;1.90;;;14.30;99.90;;;-141.84;65.84;19500.88;5092381;28;20235;-68
2024/04/06 00:54:17;;;;;;;3.13;1.88;;;14.30;99.90;;;-141.84;65.94;19484.59;5080704;28;20277;-68
2024/04/06 00:56:44;;;;;;;1.70;1.55;;;14.30;99.90;;;-141.84;66.14;19498.84;5083483;28;20595;-68
2024/04/06 00:59:11;;;;;;;1.65;1.50;;;14.30;99.90;;;-141.84;66.33;19500.88;5092281;28;20566;-67
2024/04/06 01:01:38;;;;;;;3.15;1.50;;;14.30;99.90;;;-141.84;66.54;19488.69;5087112;28;20716;-68
2024/04/06 01:04:05;;;;;;;3.20;2.10;;;14.30;99.90;;;-141.84;65.91;19504.94;5088800;28;20223;-67
2024/04/06 01:06:33;;;;;;;2.58;2.38;;;14.30;99.90;;;-141.84;65.42;19500.88;5091773;28;20206;-68
2024/04/06 01:09:00;;;;;;;2.50;2.30;;;14.40;99.90;;;-141.84;64.88;19478.50;5092858;28;20780;-67
2024/04/06 01:11:27;;;;;;;4.45;2.90;;;14.40;99.90;;;-141.84;64.34;19452.09;5091509;28;20631;-68
2024/04/06 01:13:54;;;;;;;4.22;2.70;;;14.50;99.90;;;-141.84;64.68;19466.31;5087850;28;20235;-68
2024/04/06 01:16:22;;;;;;;3.22;2.80;;;14.50;99.90;;;-141.84;64.67;19482.56;5087972;28;20255;-69
2024/04/06 01:18:49;;;;;;;2.55;2.35;;;14.50;99.90;;;-141.84;64.55;19478.50;5088818;28;20228;-67
2024/04/06 01:21:15;;;;;;;2.63;2.42;;;14.50;99.90;;;-141.84;62.97;19464.28;5090676;28;20207;-67
2024/04/06 01:23:45;;;;;;;2.75;2.00;;;14.60;99.90;;;-141.84;63.54;19498.84;5093123;28;20711;-68
2024/04/06 01:26:13;;;;;;;3.30;2.22;;;14.60;99.90;;;-141.84;64.36;19472.41;5095279;28;20707;-70
2024/04/06 01:28:43;;;;;;;2.83;2.10;;;14.60;99.90;;;-141.84;64.09;19472.41;5093378;28;20207;-68
2024/04/06 01:31:09;;;;;;;4.18;2.10;;;14.60;99.90;;;-141.84;64.25;19482.56;5091536;28;20238;-68
2024/04/06 01:33:36;;;;;;;3.83;1.90;;;14.70;99.90;;;-141.84;64.24;19466.31;5091156;28;20203;-67
2024/04/06 01:36:03;;;;;;;3.15;2.00;;;14.70;99.90;;;-141.84;64.93;19452.09;5092084;28;20801;-68
2024/04/06 01:38:31;;;;;;;2.75;2.10;;;14.60;99.90;;;-141.84;65.42;19496.81;5091685;28;20273;-67
2024/04/06 01:40:57;;;;;;;3.28;2.03;;;14.60;99.90;;;-141.84;65.63;19496.81;5089461;28;20228;-68
2024/04/06 01:43:25;;;;;;;4.57;2.30;;;14.50;99.90;;;-141.84;65.39;19484.59;5091725;28;20633;-69
2024/04/06 01:45:52;;;;;;;3.30;2.40;;;14.60;99.90;;;-141.84;65.86;19545.56;5093008;28;20219;-70
2024/04/06 01:48:19;;;;;;;3.60;2.17;;;14.50;99.90;;;-141.84;65.30;19494.78;5093312;28;20300;-68
2024/04/06 01:50:45;;;;;;;2.60;1.90;;;14.50;99.90;;;-141.84;66.32;19525.25;5091826;28;20215;-67
2024/04/06 01:53:13;;;;;;;2.42;1.83;;;14.50;99.90;;;-141.84;66.51;19498.84;5092777;28;20215;-68
2024/04/06 01:55:40;;;;;;;2.80;1.60;;;14.50;99.90;;;-141.84;66.60;19484.59;5089321;28;20219;-69
2024/04/06 01:58:06;;;;;;;2.42;1.80;;;14.40;99.90;;;-141.84;66.47;19537.44;5087645;28;20223;-69
2024/04/06 02:00:35;;;;;;;1.55;1.45;;;14.50;99.90;;;-141.84;66.73;19509.00;5091926;28;20206;-69
2024/04/06 02:03:04;;;;;;;1.95;1.50;;;14.50;99.90;;;-141.84;66.69;19509.00;5090732;28;20208;-67
2024/04/06 02:05:31;;;;;;;1.95;1.60;;;14.40;99.90;;;-141.84;67.01;19563.88;5090932;28;20219;-67
2024/04/06 02:07:57;;;;;;;2.60;1.60;;;14.40;99.90;;;-141.84;67.03;19504.94;5091779;28;20215;-68
2024/04/06 02:10:24;;;;;;;4.50;1.80;;;14.50;99.90;;;-141.84;67.15;19555.75;5092921;28;20769;-67
2024/04/06 02:12:54;;;;;;;2.28;1.52;;;14.40;99.90;;;-141.84;67.10;19506.97;5090464;28;20226;-67
2024/04/06 02:15:22;;;;;;;3.40;1.90;;;14.40;99.90;;;-141.84;66.91;19511.03;5093028;28;20292;-67
2024/04/06 02:17:49;;;;;;;1.75;1.65;;;14.50;99.90;;;-141.84;66.43;19486.66;5092139;28;20811;-67
2024/04/06 02:20:16;;;;;;;2.30;1.65;;;14.50;99.90;;;-141.84;66.69;19535.41;5089236;28;20200;-67
2024/04/06 02:22:43;;;;;;;2.20;2.00;;;14.50;99.90;;;-141.84;66.80;19509.00;5099272;28;20207;-69
2024/04/06 02:25:10;;;;;;;2.25;1.67;;;14.50;99.90;;;-141.84;66.91;19551.69;5094238;28;20220;-70
2024/04/06 02:27:36;;;;;;;2.28;1.60;;;14.50;99.90;;;-141.84;66.25;19496.81;5091244;28;20204;-68
2024/04/06 02:30:06;;;;;;;2.35;1.60;;;14.50;99.90;;;-141.84;66.26;19517.13;5091525;28;20204;-68
2024/04/06 02:32:33;;;;;;;1.67;1.50;;;14.50;99.90;;;-141.84;66.93;19525.25;5093603;28;20232;-68
2024/04/06 02:35:01;;;;;;;1.80;1.67;;;14.50;99.90;;;-141.84;67.29;19553.72;5091040;28;20224;-68
2024/04/06 02:37:28;;;;;;;1.58;1.48;;;14.50;99.90;;;-141.84;67.63;19561.84;5091073;28;20223;-67
2024/04/06 02:39:55;;;;;;;2.30;1.50;;;14.50;99.90;;;-141.84;68.08;19614.66;5092619;28;20231;-69
2024/04/06 02:42:21;;;;;;;2.22;2.00;;;14.50;99.90;;;-141.84;68.77;19665.47;5089479;28;20257;-68
2024/04/06 02:44:48;;;;;;;1.75;1.63;;;14.50;99.90;;;-141.84;69.13;19693.94;5090661;28;20216;-67
2024/04/06 02:47:16;;;;;;;1.60;1.50;;;14.50;99.90;;;-141.84;69.62;19736.59;5092814;28;20220;-69
2024/04/06 02:49:43;;;;;;;2.75;1.90;;;14.50;99.90;;;-141.84;69.72;19761.00;5084194;28;20212;-68
2024/04/06 02:52:11;;;;;;;1.98;1.77;;;14.40;99.90;;;-141.84;69.88;19799.63;5098592;28;20687;-69
2024/04/06 02:54:39;;;;;;;1.95;1.80;;;14.40;99.90;;;-141.84;69.96;19801.66;5093169;28;20616;-69
2024/04/06 02:57:05;;;;;;;2.20;1.85;;;14.40;99.90;;;-141.84;70.56;19852.44;5090683;28;20253;-70
2024/04/06 02:59:33;;;;;;;2.55;1.92;;;14.40;99.90;;;-141.84;70.97;19966.28;5090510;28;20711;-70
2024/04/06 03:01:59;;;;;;;4.22;1.75;;;14.40;99.90;;;-141.84;71.62;20155.28;5092722;28;20212;-68
2024/04/06 03:04:26;;;;;;;2.13;1.90;;;14.40;99.90;;;-141.84;71.85;20200.00;5093695;28;20249;-69
2024/04/06 03:06:53;;;;;;;2.08;1.70;;;14.40;99.90;;;-141.84;72.13;20295.53;5094056;28;20238;-69
2024/04/06 03:09:21;;;;;;;2.40;1.70;;;14.40;99.90;;;-141.84;72.18;20326.03;5094146;28;20218;-69
2024/04/06 03:11:48;;;;;;;3.05;1.80;;;14.40;99.90;;;-141.84;72.06;20234.56;5090632;28;20219;-70
2024/04/06 03:14:15;;;;;;;1.60;1.50;;;14.40;99.90;;;-141.84;71.90;20187.81;5093487;28;20215;-69
2024/04/06 03:16:41;;;;;;;2.33;1.83;;;14.40;99.90;;;-141.84;71.67;20118.69;5093374;28;20223;-68
2024/04/06 03:19:09;;;;;;;3.40;1.67;;;14.40;99.90;;;-141.84;71.46;20027.25;5090240;28;20659;-68
2024/04/06 03:21:35;;;;;;;3.92;1.80;;;14.40;99.90;;;-141.84;71.71;20134.97;5093036;28;20211;-67
2024/04/06 03:24:02;;;;;;;2.72;1.63;;;14.40;99.90;;;-141.84;71.59;20065.84;5093830;28;20199;-67
2024/04/06 03:26:30;;;;;;;2.78;1.50;;;14.40;99.90;;;-141.84;67.52;19559.81;5089854;28;20261;-72
2024/04/06 03:28:57;;;;;;;2.45;1.60;;;14.60;99.90;;;-141.84;66.88;19482.56;5090184;28;20614;-68
2024/04/06 03:31:24;;;;;;;2.40;1.70;;;14.70;99.90;;;-141.84;67.57;19521.19;5091590;28;20249;-68
2024/04/06 03:33:51;;;;;;;2.08;1.67;;;14.70;99.90;;;-141.84;68.89;19635.00;5093827;28;20219;-70
2024/04/06 03:36:17;;;;;;;2.53;1.38;;;14.60;99.90;;;-141.84;68.14;19578.09;5094252;28;20253;-68
2024/04/06 03:38:44;;;;;;;2.50;1.88;;;14.70;99.90;;;-141.84;68.17;19584.19;5093070;28;20230;-67
2024/04/06 03:41:12;;;;;;;2.45;1.40;;;14.70;99.90;;;-141.84;68.75;19610.59;5089974;28;20215;-68
2024/04/06 03:43:39;;;;;;;1.67;1.58;;;14.70;99.90;;;-141.84;68.10;19541.50;5088101;28;20219;-68
2024/04/06 03:46:07;;;;;;;2.38;1.60;;;14.60;99.90;;;-141.84;69.09;19675.63;5091090;28;20227;-71
2024/04/06 03:48:33;;;;;;;2.45;1.40;;;14.70;99.90;;;-141.84;69.47;19724.41;5092398;28;20647;-69
2024/04/06 03:51:01;;;;;;;3.85;1.80;;;14.60;99.90;;;-141.84;69.76;19740.69;5105801;28;20257;-67
2024/04/06 03:53:32;;;;;;;2.58;1.30;;;14.60;99.90;;;-141.84;68.68;19604.50;5100980;28;20219;-67
2024/04/06 03:55:59;;;;;;;2.03;1.70;;;14.60;99.90;;;-141.84;67.77;19537.44;5092221;28;20341;-69
2024/04/06 03:58:26;;;;;;;2.55;1.70;;;14.60;99.90;;;-141.84;68.47;19596.38;5089909;28;20219;-68
2024/04/06 04:00:55;;;;;;;1.98;1.77;;;14.60;99.90;;;-141.84;68.79;19610.59;5092418;28;20223;-68
2024/04/06 04:03:24;;;;;;;2.13;1.77;;;14.60;99.90;;;-141.84;67.99;19582.16;5089934;28;20207;-69
2024/04/06 04:05:51;;;;;;;2.45;1.60;;;14.60;99.90;;;-141.84;66.02;19494.78;5093245;28;20207;-68
2024/04/06 04:08:18;;;;;;;3.40;1.60;;;14.80;99.90;;;-141.84;66.54;19521.19;5085906;28;20273;-67
2024/04/06 04:10:45;;;;;;;2.05;1.83;;;14.80;99.90;;;-141.84;67.68;19584.19;5092753;28;20215;-70
2024/04/06 04:13:12;;;;;;;4.68;1.85;;;14.80;99.90;;;-141.84;67.64;19555.75;5092851;28;20228;-70
2024/04/06 04:15:41;;;;;;;3.10;1.60;;;14.80;99.90;;;-141.84;66.70;19539.47;5092685;28;20268;-68
2024/04/06 04:18:09;;;;;;;1.85;1.60;;;14.80;99.90;;;-141.84;68.41;19618.75;5089892;28;20265;-71
2024/04/06 04:20:37;;;;;;;1.85;1.40;;;14.80;99.90;;;-141.84;69.46;19765.06;5089059;28;20230;-69
2024/04/06 04:23:03;;;;;;;1.42;1.30;;;14.80;99.90;;;-141.84;68.58;19637.03;5095313;28;20736;-68
2024/04/06 04:25:31;;;;;;;3.47;1.50;;;14.80;99.90;;;-141.84;67.01;19555.75;5089532;28;20212;-70
2024/04/06 04:28:00;;;;;;;5.18;1.67;;;15.00;99.90;;;-141.84;66.66;19547.59;5088392;28;20598;-67
2024/04/06 04:30:28;;;;;;;2.30;1.40;;;15.00;99.90;;;-141.84;66.42;19539.47;5092043;28;20270;-67
2024/04/06 04:32:54;;;;;;;3.03;1.60;;;15.20;99.90;;;-141.84;67.81;19626.88;5092902;28;20206;-67
2024/04/06 04:35:22;;;;;;;1.65;1.42;;;15.10;99.90;;;-141.84;67.16;19590.28;5092376;28;20557;-67
2024/04/06 04:37:49;;;;;;;2.47;1.55;;;15.20;99.90;;;-141.84;66.02;19553.72;5092033;28;20215;-68
2024/04/06 04:40:16;;;;;;;2.53;1.70;;;15.30;99.90;;;-141.84;66.01;19511.03;5092329;28;20638;-68
2024/04/06 04:42:42;;;;;;;2.70;1.55;;;15.30;99.90;;;-141.84;68.40;19651.25;5082432;28;20226;-68
2024/04/06 04:45:12;;;;;;;4.13;1.60;;;15.20;99.90;;;-141.84;68.06;19604.50;5084466;28;20207;-69
2024/04/06 04:47:39;;;;;;;2.65;1.65;;;15.10;99.90;;;-141.84;67.45;19602.47;5092302;28;20211;-68
2024/04/06 04:50:09;;;;;;;2.53;1.65;;;15.10;99.90;;;-141.84;69.25;19728.47;5091921;28;20497;-67
2024/04/06 04:52:38;;;;;;;2.13;1.52;;;15.00;99.90;;;-141.84;70.90;19960.16;5092123;28;20211;-68
2024/04/06 04:55:06;;;;;;;2.13;1.55;;;14.90;99.90;;;-141.84;70.63;19909.34;5092440;28;20242;-69
2024/04/06 04:57:32;;;;;;;1.60;1.50;;;14.80;99.90;;;-141.84;71.24;20041.47;5084404;28;20207;-69
2024/04/06 05:00:00;;;;;;;2.63;1.60;;;14.80;99.90;;;-141.84;71.35;20137.00;5095788;28;20219;-72
2024/04/06 05:02:26;;;;;;;2.88;1.67;;;14.80;99.90;;;-141.84;71.91;20313.84;5095459;28;20252;-68
2024/04/06 05:04:53;;;;;;;3.50;1.70;;;14.80;99.90;;;-141.84;72.07;20352.44;5093955;28;20276;-68
2024/04/06 05:07:21;;;;;;;3.17;1.70;;;14.80;99.90;;;-141.84;72.12;20324.00;5094084;28;20230;-67
2024/04/06 05:09:52;;;;;;;2.47;1.60;;;14.80;99.90;;;-141.84;72.34;20435.78;5089187;28;20224;-69
2024/04/06 05:12:18;;;;;;;3.75;1.70;;;14.80;99.90;;;-141.84;70.94;20055.69;5090481;28;20551;-67
2024/04/06 05:14:46;;;;;;;1.83;1.67;;;14.80;99.90;;;-141.84;71.55;20187.81;5088266;28;20765;-69
2024/04/06 05:17:13;;;;;;;2.17;1.50;;;14.80;99.90;;;-141.84;71.53;20167.47;5088824;28;20224;-71
2024/04/06 05:19:40;;;;;;;2.83;1.58;;;14.90;99.90;;;-141.84;71.99;20328.06;5089891;28;20216;-71
2024/04/06 05:22:07;;;;;;;1.90;1.40;;;14.90;99.90;;;-141.84;71.45;20139.03;5087205;28;20699;-68
2024/04/06 05:24:34;;;;;;;2.75;1.40;;;14.90;99.90;;;-141.84;70.17;19844.31;5092451;28;20195;-68
2024/04/06 05:27:02;;;;;;;1.90;1.40;;;15.00;99.90;;;-141.84;69.73;19807.75;5093672;28;20226;-67
2024/04/06 05:29:30;;;;;;;1.58;1.40;;;15.00;99.90;;;-141.84;70.48;19880.91;5092671;28;20741;-67
2024/04/06 05:31:58;;;;;;;2.80;1.40;;;15.00;99.90;;;-141.84;70.64;19923.59;5092014;28;20268;-69
2024/04/06 05:34:25;;;;;;;1.67;1.23;;;15.00;99.90;;;-141.84;70.28;19876.84;5091818;28;20235;-68
2024/04/06 05:36:52;;;;;;;2.13;1.40;;;15.00;99.90;;;-141.84;69.94;19815.88;5092110;28;20234;-69
2024/04/06 05:39:20;;;;;;;3.72;1.95;;;15.10;99.90;;;-141.84;70.45;19943.91;5090557;28;20214;-69
2024/04/06 05:41:47;;;;;;;1.50;1.40;;;15.10;99.90;;;-141.84;69.34;19734.56;5092577;28;20219;-69
2024/04/06 05:44:16;;;;;;;2.65;1.60;;;15.10;99.90;;;-141.84;69.40;19710.19;5096436;28;20257;-69
2024/04/06 05:46:42;;;;;;;1.63;1.50;;;15.10;99.90;;;-141.84;68.68;19683.78;5096640;28;20218;-71
2024/04/06 05:49:10;;;;;;;3.05;1.85;;;15.20;99.90;;;-141.84;67.58;19624.84;5096180;28;20219;-70
2024/04/06 05:51:36;;;;;;;2.05;1.67;;;15.30;99.90;;;-141.84;67.78;19616.72;5098940;27;20199;-69
2024/04/06 05:54:03;;;;;;;1.85;1.33;;;15.30;99.90;;;-141.84;68.01;19677.66;5100471;28;20200;-71
2024/04/06 05:56:30;;;;;;;1.77;1.33;;;15.40;99.90;;;-141.84;68.50;19665.47;5091822;28;20219;-70
2024/04/06 05:58:57;;;;;;;1.40;1.27;;;15.50;99.90;;;-141.84;67.97;19618.75;5095917;28;20222;-68
2024/04/06 06:01:25;;;;;;;1.98;1.30;;;15.50;99.90;;;-141.84;67.50;19675.63;5095498;28;20215;-67
2024/04/06 06:03:52;;;;;;;1.52;1.23;;;15.50;99.90;;;-141.84;67.21;19641.09;5092870;28;20224;-68
2024/04/06 06:06:18;;;;;;;2.50;1.30;;;15.60;99.90;;;-141.84;65.79;19541.50;5092462;28;20204;-70
2024/04/06 06:08:46;;;;;;;3.72;1.58;;;15.70;99.90;;;-141.84;65.41;19547.59;5091550;28;20223;-69
2024/04/06 06:11:12;;;;;;;3.63;1.60;;;15.80;99.90;;;-141.84;63.60;19521.19;5092498;28;20756;-69
2024/04/06 06:13:39;;;;;;;1.80;1.50;;;16.00;99.90;;;-141.84;61.73;19504.94;5094910;28;20231;-69
2024/04/06 06:16:06;;;;;;;2.10;1.40;;;16.10;99.90;;;-141.84;62.80;19533.38;5091682;28;20273;-68
2024/04/06 06:18:35;;;;;;;1.88;1.38;;;16.10;99.90;;;-141.84;63.58;19521.19;5092765;28;20204;-68
2024/04/06 06:21:05;;;;;;;2.50;1.40;;;16.20;99.90;;;-141.84;63.37;19596.38;5095570;28;20199;-68
2024/04/06 06:23:32;;;;;;;3.95;1.77;;;16.30;99.90;;;-141.84;61.19;19553.72;5093716;28;20220;-69
2024/04/06 06:25:59;;;;;;;2.08;1.30;;;16.50;99.90;;;-141.84;61.02;19569.97;5093057;28;20270;-68
2024/04/06 06:28:26;;;;;;;1.40;1.23;;;16.70;99.90;;;-141.84;58.47;19592.31;5088829;28;20210;-68
2024/04/06 06:30:52;;;;;;;1.60;1.15;;;17.00;99.90;;;-141.84;58.94;19626.88;5087311;28;20203;-68
2024/04/06 06:33:21;;;;;;;2.30;1.20;;;17.10;99.90;;;-141.84;57.81;19608.56;5089154;28;21225;-69
2024/04/06 06:35:55;;;;;;;3.50;1.25;;;17.20;99.90;;;-141.84;57.78;19604.50;5084956;28;20235;-68
2024/04/06 06:38:22;;;;;;;2.03;1.30;;;17.20;99.90;;;-141.84;56.98;19679.72;5083228;28;20238;-69
2024/04/06 06:40:49;;;;;;;2.72;1.50;;;17.30;99.90;;;-141.84;57.41;19645.16;5089435;28;20698;-69
2024/04/06 06:43:17;;;;;;;2.35;1.50;;;17.40;99.90;;;-141.84;57.43;19628.91;5087606;28;20223;-69
2024/04/06 06:45:44;;;;;;;1.23;1.13;;;17.40;99.90;;;-141.84;56.98;19641.09;5093364;28;20196;-69
2024/04/06 06:48:11;;;;;;;2.05;1.40;;;17.50;99.90;;;-141.84;56.64;19655.31;5091856;28;20610;-70
2024/04/06 06:50:38;;;;;;;2.22;1.15;;;17.60;99.90;;;-141.84;56.93;19673.59;5087998;28;20328;-68
2024/04/06 06:53:06;;;;;;;2.17;1.38;;;17.70;99.90;;;-141.84;56.20;19726.44;5093381;28;20219;-69
2024/04/06 06:55:33;;;;;;;1.77;1.30;;;17.80;99.90;;;-141.84;55.29;19695.97;5090602;28;20220;-69
2024/04/06 06:58:00;;;;;;;3.53;1.55;;;17.90;99.90;;;-141.84;54.64;19698.00;5090642;28;20227;-69
2024/04/06 07:00:26;;;;;;;1.67;1.30;;;18.00;99.90;;;-141.84;53.67;19750.84;5094304;28;20200;-70
2024/04/06 07:02:54;;;;;;;2.58;1.48;;;18.20;99.90;;;-141.84;52.92;19765.06;5091581;28;20203;-68
2024/04/06 07:05:20;;;;;;;1.30;1.20;;;18.20;99.90;;;-141.84;53.48;19738.66;5093734;28;20212;-67
2024/04/06 07:07:53;;;;;;;3.03;1.30;;;18.10;99.90;;;-141.84;53.55;19724.41;5094241;28;20233;-69
2024/04/06 07:10:21;;;;;;;1.70;1.33;;;18.20;99.90;;;-141.84;53.82;19738.66;5093779;28;20296;-69
2024/04/06 07:12:48;;;;;;;4.30;1.52;;;18.10;99.90;;;-141.84;53.18;19769.13;5090349;28;20262;-67
2024/04/06 07:15:15;;;;;;;3.13;1.42;;;18.10;99.90;;;-141.84;53.13;19779.28;5090620;28;20208;-69
2024/04/06 07:17:43;;;;;;;4.35;1.40;;;18.10;99.90;;;-141.84;53.43;19750.84;5091255;28;20231;-69
2024/04/06 07:20:10;;;;;;;2.08;1.50;;;18.00;99.90;;;-141.84;54.90;19712.22;5078329;28;20192;-70
2024/04/06 07:22:39;;;;;;;2.75;1.63;;;17.90;99.90;;;-141.84;55.53;19695.97;5087871;28;20211;-69
2024/04/06 07:25:06;;;;;;;2.75;1.45;;;17.80;99.90;;;-141.84;55.94;19691.91;5079367;28;20203;-69
2024/04/06 07:27:34;;;;;;;2.40;1.48;;;17.80;99.90;;;-141.84;56.13;19661.41;5088188;28;20196;-69
2024/04/06 07:30:01;;;;;;;2.97;1.73;;;17.70;99.90;;;-141.84;55.59;19651.25;5093342;28;20227;-69
2024/04/06 07:32:28;;;;;;;1.85;1.50;;;17.70;99.90;;;-141.84;55.26;19700.03;5084241;28;20219;-69
2024/04/06 07:34:54;;;;;;;2.72;1.40;;;17.70;99.90;;;-141.84;55.57;19687.84;5089931;28;20208;-70
2024/04/06 07:37:22;;;;;;;3.85;1.45;;;17.80;99.90;;;-141.84;54.63;19730.50;5093519;28;20219;-69
2024/04/06 07:39:48;;;;;;;2.92;1.40;;;17.90;99.90;;;-141.84;54.01;19714.25;5090399;28;20691;-69
2024/04/06 07:42:15;;;;;;;1.85;1.38;;;18.10;99.90;;;-141.84;54.22;19773.19;5090082;28;20207;-69
2024/04/06 07:44:43;;;;;;;1.50;1.15;;;18.10;99.90;;;-141.84;53.65;19793.50;5090761;28;20216;-69
2024/04/06 07:47:10;;;;;;;1.48;1.38;;;18.20;99.90;;;-141.84;53.30;19807.75;5093230;28;20219;-69
2024/04/06 07:49:37;;;;;;;2.20;1.30;;;18.20;99.90;;;-141.84;52.28;19809.78;5092598;28;20226;-68
2024/04/06 07:52:05;;;;;;;3.15;1.40;;;18.30;99.90;;;-141.84;52.71;19785.38;5088741;28;20728;-70
2024/04/06 07:54:31;;;;;;;1.92;1.42;;;18.50;99.90;;;-141.84;52.18;19781.31;5085033;28;20199;-69
2024/04/06 07:57:01;;;;;;;2.22;1.60;;;18.50;99.90;;;-141.84;52.59;19838.22;5083459;28;20250;-69
2024/04/06 07:59:27;;;;;;;1.90;1.40;;;18.60;99.90;;;-141.84;51.39;19828.06;5087864;28;20221;-69
2024/04/06 08:01:56;;;;;;;2.15;1.65;;;18.70;99.90;;;-141.84;52.20;19838.22;5086644;28;20206;-69
2024/04/06 08:04:22;;;;;;;3.40;1.75;;;18.70;99.90;;;-141.84;52.26;19817.91;5093529;28;20227;-69
2024/04/06 08:06:52;;;;;;;1.50;1.30;;;18.70;99.90;;;-141.84;51.73;19819.94;5090480;28;20264;-70
2024/04/06 08:09:18;;;;;;;1.73;1.30;;;18.80;99.90;;;-141.84;52.42;19836.19;5090755;28;20679;-68
2024/04/06 08:11:45;;;;;;;2.95;1.27;;;18.70;99.90;;;-141.84;51.99;19824.00;5085231;28;20860;-68
2024/04/06 08:14:12;;;;;;;1.60;1.40;;;18.80;99.90;;;-141.84;51.74;19903.25;5077265;28;20216;-69
2024/04/06 08:16:40;;;;;;;1.40;1.30;;;18.80;99.90;;;-141.84;51.61;19838.22;5074138;28;20219;-69
2024/04/06 08:19:08;;;;;;;1.48;1.05;;;18.90;99.90;;;-141.84;50.94;19846.34;5067006;28;20229;-68
2024/04/06 08:21:35;;;;;;;2.60;1.30;;;18.90;99.90;;;-141.84;51.08;19834.16;5065125;28;20201;-69
2024/04/06 08:24:01;;;;;;;2.22;1.30;;;18.90;99.90;;;-141.84;51.41;19856.53;5072249;28;20204;-69
2024/04/06 08:26:29;;;;;;;2.03;1.30;;;18.90;99.90;;;-141.84;51.90;19872.78;5068086;28;20595;-67
2024/04/06 08:28:55;;;;;;;1.52;1.20;;;18.90;99.90;;;-141.84;51.80;19878.88;5069735;28;20219;-68
2024/04/06 08:31:22;;;;;;;1.80;1.13;;;18.90;99.90;;;-141.84;51.00;19874.81;5070769;28;20220;-68
2024/04/06 08:33:48;;;;;;;1.77;1.20;;;19.00;99.90;;;-141.84;51.05;19919.53;5070136;28;20289;-68
2024/04/06 08:36:17;;;;;;;3.03;1.25;;;19.10;99.90;;;-141.84;50.42;19911.41;5070381;28;20277;-68
2024/04/06 08:38:44;;;;;;;2.08;1.30;;;19.20;99.90;;;-141.84;50.47;19956.09;5068899;28;20216;-68
2024/04/06 08:41:11;;;;;;;2.03;1.20;;;19.30;99.90;;;-141.84;50.50;19945.94;5063243;28;20228;-67
2024/04/06 08:43:43;;;;;;;1.88;0.93;;;19.30;99.90;;;-141.84;50.07;19974.41;5081960;28;20212;-69
2024/04/06 08:46:10;;;;;;;1.38;1.17;;;19.50;99.90;;;-141.84;49.31;19958.13;5064678;28;20224;-68
2024/04/06 08:48:38;;;;;;;1.30;1.00;;;19.60;99.90;;;-141.84;49.60;19980.50;5066400;28;20212;-68
2024/04/06 08:51:08;;;;;;;1.77;1.10;;;19.70;99.90;;;-141.84;49.12;19986.59;5060386;28;20226;-69
2024/04/06 08:53:36;;;;;;;2.35;1.20;;;19.80;99.90;;;-141.84;48.20;20027.25;5070851;28;20236;-69
2024/04/06 08:56:08;;;;;;;1.33;1.00;;;20.00;99.90;;;-141.84;47.91;20049.59;5068831;28;20235;-68
2024/04/06 08:58:35;;;;;;;1.38;1.10;;;20.10;99.90;;;-141.84;48.58;20037.41;5071630;28;20219;-69
2024/04/06 09:01:03;;;;;;;2.13;1.13;;;20.10;99.90;;;-141.84;48.45;20037.41;5065505;28;20224;-68
2024/04/06 09:03:31;;;;;;;1.50;1.00;;;20.20;99.90;;;-141.84;47.93;20084.16;5069326;28;20605;-68
2024/04/06 09:05:58;;;;;;;0.95;0.95;;;20.20;99.90;;;-141.84;48.13;20061.78;5073011;28;20251;-69
2024/04/06 09:08:25;;;;;;;2.05;0.98;;;20.30;99.90;;;-141.84;47.87;20102.44;5072398;28;20223;-69
2024/04/06 09:10:57;;;;;;;1.27;0.93;;;20.40;99.90;;;-141.84;46.88;20114.63;5065705;28;20216;-67
2024/04/06 09:13:25;;;;;;;1.42;1.00;;;20.50;99.90;;;-141.84;46.88;20128.88;5076646;28;20216;-69
2024/04/06 09:15:52;;;;;;;2.17;1.00;;;20.50;99.90;;;-141.84;46.88;20157.31;5073805;28;20220;-67
2024/04/06 09:18:18;;;;;;;1.63;1.17;;;20.50;99.90;;;-141.84;47.11;20149.19;5071698;28;20256;-69
2024/04/06 09:20:51;;;;;;;1.88;1.00;;;20.60;99.90;;;-141.84;46.56;20145.13;5071983;28;20228;-69
2024/04/06 09:23:18;;;;;;;2.10;1.20;;;20.60;99.90;;;-141.84;46.79;20159.34;5060778;28;20216;-68
2024/04/06 09:25:46;;;;;;;1.70;0.90;;;20.70;99.90;;;-141.84;46.33;20195.94;5066612;28;20223;-68
2024/04/06 09:28:15;;;;;;;1.42;1.00;;;20.80;99.90;;;-141.84;46.29;20173.59;5071776;28;20228;-69
2024/04/06 09:30:44;;;;;;;1.45;1.17;;;20.80;99.90;;;-141.84;45.81;20208.13;5072312;28;20204;-67
2024/04/06 09:33:11;;;;;;;1.10;1.00;;;20.90;99.90;;;-141.84;45.33;20216.25;5064927;28;20661;-68
2024/04/06 09:35:41;;;;;;;1.42;0.90;;;20.90;99.90;;;-141.84;45.53;20222.38;5073387;28;20222;-68
2024/04/06 09:38:13;;;;;;;1.17;1.00;;;20.90;99.90;;;-141.84;45.77;20202.03;5077378;28;20223;-69
2024/04/06 09:40:43;;;;;;;1.90;1.40;;;20.80;99.90;;;-141.84;45.47;20206.09;5071261;28;20739;-69
2024/04/06 09:43:12;;;;;;;2.00;1.30;;;20.80;99.90;;;-141.84;45.43;20228.47;5063757;28;20278;-67
2024/04/06 09:45:41;;;;;;;1.33;1.23;;;20.80;99.90;;;-141.84;45.57;20214.22;5071737;28;20188;-69
2024/04/06 09:48:09;;;;;;;3.33;1.35;;;20.70;99.90;;;-141.84;45.74;20200.00;5067605;28;20204;-69
2024/04/06 09:50:39;;;;;;;2.03;1.33;;;20.80;99.90;;;-141.84;46.07;20173.59;5071552;28;20707;-67
2024/04/06 09:53:06;;;;;;;1.88;1.40;;;20.80;99.90;;;-141.84;45.99;20177.66;5066345;28;20220;-69
2024/04/06 09:55:37;;;;;;;1.92;1.40;;;20.80;99.90;;;-141.84;45.34;20271.16;5065128;28;20612;-68
2024/04/06 09:58:06;;;;;;;2.55;1.48;;;20.90;99.90;;;-141.84;45.26;20234.56;5064609;28;20274;-68
2024/04/06 10:00:34;;;;;;;1.30;1.20;;;21.00;99.90;;;-141.84;44.22;20273.19;5069581;28;20193;-68
2024/04/06 10:03:04;;;;;;;2.55;1.40;;;21.00;99.90;;;-141.84;44.49;20283.34;5062968;28;20268;-65
2024/04/06 10:05:39;;;;;;;1.80;1.55;;;21.10;99.90;;;-141.84;44.45;20313.84;5068540;28;20220;-65